Del Rio, TX (78840)

11:54 AM CDT on September 01, 2015 (GMT -0500)
Avenue P, Del Rio, TX | | Change Station
CLOSE
Current Station
Personal Weather Station
Location: Del Rio, TX
Elevation: 1014 ft
Nearby Weather Stations

Elev 1014 ft 29.38 °N, 100.91 °W | Updated 11 minutes ago

Clear
Clear
91.6 °F
Feels Like 97 °F
N
4.2
Wind Variable Wind from ESE

Today
High -- | Low -- °F
--% Chance of Precip.
Yesterday
High -- | Low -- °F
Precip. -- in
7:20 AM 8:05 PM
Waning Gibbous, 88% visible
Pressure 29.98 in
Visibility 10.0 miles
Clouds Few 2600 ft
Heat Index 97 °F
Dew Point 69 °F
Humidity 48%
Rainfall 0.00 in
Snow Depth Not available.
UV 6 out of 12
Pollen 9.30 out of 12
Air Quality Not available.
Flu Activity Not available.
METAR KDRT 011553Z AUTO 12011G15KT 10SM FEW026 28/19 A3002 RMK AO2 SLP150 T02780194 $
Pressure 29.98 in
Visibility 10.0 miles
Clouds Few 2600 ft
Heat Index 97 °F
Dew Point 69 °F
Humidity 48%
Rainfall 0.00 in
Snow Depth Not available.
UV 6 out of 12
Pollen 9.30 out of 12
Air Quality Not available.
Flu Activity Not available.
METAR KDRT 011553Z AUTO 12011G15KT 10SM FEW026 28/19 A3002 RMK AO2 SLP150 T02780194 $

10-Day Weather Forecast

×

Almanac

Astronomy

Sep. 01, 2015 Rise Set
Actual Time
Civil Twilight
Nautical Twilight
Astronomical Twilight
Moon
Length of Visible Light
Length of Day
Tomorrow will be .
, % of the Moon is Illuminated

Today's Extremes

State Highs State Lows

Community

WunderPhotos

Upload Photos

1,851,555 photos uploaded!

WunderBlogs® & News

Nearby

Air Quality

  Air Quality AQ Index Pollutant
Not available.

Snow Depth

Station Depth Elevation

Earthquake Activity

City Distance Mag. Time & Date
Minimum magnitude displayed is 2.5.

Coastal Water Temperatures

Place Temperature

Stations

Nearby Weather Stations

Station Location Temp. Windchill Dew Point Humidity Wind Precip. Elev Updated Type